sensor_id;sensor_type;location;lat;lon;timestamp;P1;durP1;ratioP1;P2;durP2;ratioP2
17482;SDS011;8858;52.308;20.994;2023-07-31T00:00:39;5.82;;;2.40;;
17482;SDS011;8858;52.308;20.994;2023-07-31T00:03:07;2.50;;;2.25;;
17482;SDS011;8858;52.308;20.994;2023-07-31T00:05:37;3.30;;;2.55;;
17482;SDS011;8858;52.308;20.994;2023-07-31T00:08:06;2.50;;;2.30;;
17482;SDS011;8858;52.308;20.994;2023-07-31T00:10:34;2.25;;;2.05;;
17482;SDS011;8858;52.308;20.994;2023-07-31T00:13:03;2.45;;;2.25;;
17482;SDS011;8858;52.308;20.994;2023-07-31T00:15:35;5.05;;;2.20;;
17482;SDS011;8858;52.308;20.994;2023-07-31T00:18:05;2.80;;;2.20;;
17482;SDS011;8858;52.308;20.994;2023-07-31T00:20:33;2.75;;;1.90;;
17482;SDS011;8858;52.308;20.994;2023-07-31T00:23:02;2.22;;;1.92;;
17482;SDS011;8858;52.308;20.994;2023-07-31T00:25:30;3.45;;;1.90;;
17482;SDS011;8858;52.308;20.994;2023-07-31T00:27:59;2.10;;;2.00;;
17482;SDS011;8858;52.308;20.994;2023-07-31T00:30:29;2.63;;;2.00;;
17482;SDS011;8858;52.308;20.994;2023-07-31T00:33:00;1.85;;;1.75;;
17482;SDS011;8858;52.308;20.994;2023-07-31T00:35:30;2.47;;;1.70;;
17482;SDS011;8858;52.308;20.994;2023-07-31T00:37:59;1.77;;;1.67;;
17482;SDS011;8858;52.308;20.994;2023-07-31T00:40:28;2.33;;;1.75;;
17482;SDS011;8858;52.308;20.994;2023-07-31T00:42:57;2.00;;;1.90;;
17482;SDS011;8858;52.308;20.994;2023-07-31T00:45:28;2.15;;;1.90;;
17482;SDS011;8858;52.308;20.994;2023-07-31T00:47:57;1.90;;;1.75;;
17482;SDS011;8858;52.308;20.994;2023-07-31T00:50:26;1.70;;;1.60;;
17482;SDS011;8858;52.308;20.994;2023-07-31T00:52:59;2.10;;;2.00;;
17482;SDS011;8858;52.308;20.994;2023-07-31T00:55:26;3.83;;;1.88;;
17482;SDS011;8858;52.308;20.994;2023-07-31T00:57:55;2.33;;;2.13;;
17482;SDS011;8858;52.308;20.994;2023-07-31T01:00:25;1.90;;;1.80;;
17482;SDS011;8858;52.308;20.994;2023-07-31T01:02:54;2.00;;;1.90;;
17482;SDS011;8858;52.308;20.994;2023-07-31T01:05:24;3.30;;;2.20;;
17482;SDS011;8858;52.308;20.994;2023-07-31T01:08:01;2.95;;;2.05;;
17482;SDS011;8858;52.308;20.994;2023-07-31T01:10:38;4.43;;;2.33;;
17482;SDS011;8858;52.308;20.994;2023-07-31T01:13:12;2.65;;;2.30;;
17482;SDS011;8858;52.308;20.994;2023-07-31T01:15:42;4.05;;;2.30;;
17482;SDS011;8858;52.308;20.994;2023-07-31T01:18:10;2.67;;;2.30;;
17482;SDS011;8858;52.308;20.994;2023-07-31T01:20:39;2.67;;;2.20;;
17482;SDS011;8858;52.308;20.994;2023-07-31T01:23:22;3.03;;;2.17;;
17482;SDS011;8858;52.308;20.994;2023-07-31T01:26:09;2.28;;;2.08;;
17482;SDS011;8858;52.308;20.994;2023-07-31T01:28:44;3.70;;;2.38;;
17482;SDS011;8858;52.308;20.994;2023-07-31T01:31:22;3.22;;;2.90;;
17482;SDS011;8858;52.308;20.994;2023-07-31T01:33:53;2.88;;;2.28;;
17482;SDS011;8858;52.308;20.994;2023-07-31T01:36:30;2.88;;;2.67;;
17482;SDS011;8858;52.308;20.994;2023-07-31T01:38:59;3.70;;;2.70;;
17482;SDS011;8858;52.308;20.994;2023-07-31T01:41:29;4.97;;;2.95;;
17482;SDS011;8858;52.308;20.994;2023-07-31T01:43:57;2.88;;;2.58;;
17482;SDS011;8858;52.308;20.994;2023-07-31T01:46:26;3.28;;;2.30;;
17482;SDS011;8858;52.308;20.994;2023-07-31T01:48:58;2.35;;;2.10;;
17482;SDS011;8858;52.308;20.994;2023-07-31T01:51:27;3.70;;;2.42;;
17482;SDS011;8858;52.308;20.994;2023-07-31T01:53:56;2.15;;;1.98;;
17482;SDS011;8858;52.308;20.994;2023-07-31T01:56:24;2.30;;;2.03;;
17482;SDS011;8858;52.308;20.994;2023-07-31T01:58:54;2.47;;;2.00;;
17482;SDS011;8858;52.308;20.994;2023-07-31T02:01:25;2.65;;;2.20;;
17482;SDS011;8858;52.308;20.994;2023-07-31T02:03:54;2.72;;;2.47;;
17482;SDS011;8858;52.308;20.994;2023-07-31T02:06:24;5.15;;;2.33;;
17482;SDS011;8858;52.308;20.994;2023-07-31T02:08:53;2.55;;;2.38;;
17482;SDS011;8858;52.308;20.994;2023-07-31T02:11:23;3.10;;;2.47;;
17482;SDS011;8858;52.308;20.994;2023-07-31T02:13:53;2.65;;;2.45;;
17482;SDS011;8858;52.308;20.994;2023-07-31T02:16:21;2.97;;;2.50;;
17482;SDS011;8858;52.308;20.994;2023-07-31T02:18:50;3.13;;;2.80;;
17482;SDS011;8858;52.308;20.994;2023-07-31T02:21:19;4.70;;;3.03;;
17482;SDS011;8858;52.308;20.994;2023-07-31T02:23:47;3.53;;;2.72;;
17482;SDS011;8858;52.308;20.994;2023-07-31T02:26:15;3.35;;;2.78;;
17482;SDS011;8858;52.308;20.994;2023-07-31T02:28:43;4.55;;;3.08;;
17482;SDS011;8858;52.308;20.994;2023-07-31T02:31:13;4.72;;;3.35;;
17482;SDS011;8858;52.308;20.994;2023-07-31T02:33:44;3.95;;;2.53;;
17482;SDS011;8858;52.308;20.994;2023-07-31T02:36:13;5.63;;;3.10;;
17482;SDS011;8858;52.308;20.994;2023-07-31T02:38:41;3.47;;;3.17;;
17482;SDS011;8858;52.308;20.994;2023-07-31T02:41:10;4.05;;;3.15;;
17482;SDS011;8858;52.308;20.994;2023-07-31T02:43:38;3.90;;;3.38;;
17482;SDS011;8858;52.308;20.994;2023-07-31T02:46:09;3.13;;;2.80;;
17482;SDS011;8858;52.308;20.994;2023-07-31T02:48:39;3.72;;;2.90;;
17482;SDS011;8858;52.308;20.994;2023-07-31T02:51:09;3.33;;;2.60;;
17482;SDS011;8858;52.308;20.994;2023-07-31T02:53:38;2.63;;;2.42;;
17482;SDS011;8858;52.308;20.994;2023-07-31T02:56:06;3.45;;;3.05;;
17482;SDS011;8858;52.308;20.994;2023-07-31T02:58:35;3.83;;;2.88;;
17482;SDS011;8858;52.308;20.994;2023-07-31T03:01:04;3.60;;;2.60;;
17482;SDS011;8858;52.308;20.994;2023-07-31T03:03:33;2.95;;;2.65;;
17482;SDS011;8858;52.308;20.994;2023-07-31T03:06:02;4.22;;;3.20;;
17482;SDS011;8858;52.308;20.994;2023-07-31T03:08:31;3.08;;;2.80;;
17482;SDS011;8858;52.308;20.994;2023-07-31T03:11:00;3.58;;;2.72;;
17482;SDS011;8858;52.308;20.994;2023-07-31T03:13:29;4.35;;;2.90;;
17482;SDS011;8858;52.308;20.994;2023-07-31T03:18:50;2.70;;;2.50;;
17482;SDS011;8858;52.308;20.994;2023-07-31T03:21:20;3.60;;;2.75;;
17482;SDS011;8858;52.308;20.994;2023-07-31T03:23:49;2.90;;;2.70;;
17482;SDS011;8858;52.308;20.994;2023-07-31T03:26:21;3.97;;;2.60;;
17482;SDS011;8858;52.308;20.994;2023-07-31T03:28:50;2.55;;;2.35;;
17482;SDS011;8858;52.308;20.994;2023-07-31T03:31:19;3.72;;;3.42;;
17482;SDS011;8858;52.308;20.994;2023-07-31T03:33:47;2.63;;;2.35;;
17482;SDS011;8858;52.308;20.994;2023-07-31T03:36:16;3.15;;;2.60;;
17482;SDS011;8858;52.308;20.994;2023-07-31T03:38:45;2.80;;;2.60;;
17482;SDS011;8858;52.308;20.994;2023-07-31T03:41:15;3.45;;;2.75;;
17482;SDS011;8858;52.308;20.994;2023-07-31T03:43:45;3.97;;;2.63;;
17482;SDS011;8858;52.308;20.994;2023-07-31T03:46:13;2.97;;;2.60;;
17482;SDS011;8858;52.308;20.994;2023-07-31T03:48:42;3.20;;;2.90;;
17482;SDS011;8858;52.308;20.994;2023-07-31T03:51:11;4.85;;;2.60;;
17482;SDS011;8858;52.308;20.994;2023-07-31T03:53:40;4.13;;;2.50;;
17482;SDS011;8858;52.308;20.994;2023-07-31T03:56:09;5.53;;;3.20;;
17482;SDS011;8858;52.308;20.994;2023-07-31T03:58:39;3.95;;;2.65;;
17482;SDS011;8858;52.308;20.994;2023-07-31T04:01:08;2.78;;;2.58;;
17482;SDS011;8858;52.308;20.994;2023-07-31T04:03:37;3.38;;;2.50;;
17482;SDS011;8858;52.308;20.994;2023-07-31T04:06:05;2.58;;;2.38;;
17482;SDS011;8858;52.308;20.994;2023-07-31T04:08:35;3.10;;;2.80;;
17482;SDS011;8858;52.308;20.994;2023-07-31T04:11:05;2.65;;;2.42;;
17482;SDS011;8858;52.308;20.994;2023-07-31T04:13:35;3.00;;;2.65;;
17482;SDS011;8858;52.308;20.994;2023-07-31T04:16:03;3.45;;;2.63;;
17482;SDS011;8858;52.308;20.994;2023-07-31T04:18:34;3.70;;;2.78;;
17482;SDS011;8858;52.308;20.994;2023-07-31T04:21:03;2.60;;;2.40;;
17482;SDS011;8858;52.308;20.994;2023-07-31T04:23:31;3.35;;;2.83;;
17482;SDS011;8858;52.308;20.994;2023-07-31T04:25:59;4.53;;;3.22;;
17482;SDS011;8858;52.308;20.994;2023-07-31T04:28:28;3.47;;;2.42;;
17482;SDS011;8858;52.308;20.994;2023-07-31T04:31:03;4.95;;;2.70;;
17482;SDS011;8858;52.308;20.994;2023-07-31T04:33:36;7.10;;;2.95;;
17482;SDS011;8858;52.308;20.994;2023-07-31T04:36:04;2.38;;;2.22;;
17482;SDS011;8858;52.308;20.994;2023-07-31T04:38:33;3.13;;;2.80;;
17482;SDS011;8858;52.308;20.994;2023-07-31T04:41:01;4.93;;;2.47;;
17482;SDS011;8858;52.308;20.994;2023-07-31T04:43:31;2.70;;;2.50;;
17482;SDS011;8858;52.308;20.994;2023-07-31T04:45:59;2.92;;;2.70;;
17482;SDS011;8858;52.308;20.994;2023-07-31T04:48:29;3.10;;;2.58;;
17482;SDS011;8858;52.308;20.994;2023-07-31T04:50:57;4.57;;;2.60;;
17482;SDS011;8858;52.308;20.994;2023-07-31T04:53:26;2.72;;;2.40;;
17482;SDS011;8858;52.308;20.994;2023-07-31T04:55:55;2.97;;;2.75;;
17482;SDS011;8858;52.308;20.994;2023-07-31T04:58:24;5.28;;;2.67;;
17482;SDS011;8858;52.308;20.994;2023-07-31T05:00:52;3.83;;;3.08;;
17482;SDS011;8858;52.308;20.994;2023-07-31T05:03:20;3.58;;;2.20;;
17482;SDS011;8858;52.308;20.994;2023-07-31T05:05:50;3.20;;;2.90;;
17482;SDS011;8858;52.308;20.994;2023-07-31T05:08:22;2.72;;;2.53;;
17482;SDS011;8858;52.308;20.994;2023-07-31T05:10:50;2.72;;;2.53;;
17482;SDS011;8858;52.308;20.994;2023-07-31T05:13:18;2.63;;;2.17;;
17482;SDS011;8858;52.308;20.994;2023-07-31T05:15:49;7.63;;;2.50;;
17482;SDS011;8858;52.308;20.994;2023-07-31T05:18:17;6.57;;;3.08;;
17482;SDS011;8858;52.308;20.994;2023-07-31T05:20:45;3.03;;;2.45;;
17482;SDS011;8858;52.308;20.994;2023-07-31T05:23:15;8.57;;;3.00;;
17482;SDS011;8858;52.308;20.994;2023-07-31T05:25:43;2.65;;;2.45;;
17482;SDS011;8858;52.308;20.994;2023-07-31T05:28:11;5.72;;;2.80;;
17482;SDS011;8858;52.308;20.994;2023-07-31T05:30:40;4.00;;;2.47;;
17482;SDS011;8858;52.308;20.994;2023-07-31T05:33:08;3.00;;;2.38;;
17482;SDS011;8858;52.308;20.994;2023-07-31T05:35:40;3.60;;;2.53;;
17482;SDS011;8858;52.308;20.994;2023-07-31T05:38:08;3.60;;;2.72;;
17482;SDS011;8858;52.308;20.994;2023-07-31T05:40:40;3.10;;;2.60;;
17482;SDS011;8858;52.308;20.994;2023-07-31T05:43:10;5.65;;;2.67;;
17482;SDS011;8858;52.308;20.994;2023-07-31T05:45:40;4.07;;;2.95;;
17482;SDS011;8858;52.308;20.994;2023-07-31T05:48:09;3.72;;;2.95;;
17482;SDS011;8858;52.308;20.994;2023-07-31T05:50:37;2.85;;;2.65;;
17482;SDS011;8858;52.308;20.994;2023-07-31T05:53:07;5.68;;;2.88;;
17482;SDS011;8858;52.308;20.994;2023-07-31T05:55:36;2.88;;;2.55;;
17482;SDS011;8858;52.308;20.994;2023-07-31T05:58:07;4.95;;;2.70;;
17482;SDS011;8858;52.308;20.994;2023-07-31T06:00:36;4.30;;;2.60;;
17482;SDS011;8858;52.308;20.994;2023-07-31T06:03:04;4.10;;;2.55;;
17482;SDS011;8858;52.308;20.994;2023-07-31T06:05:35;4.20;;;2.78;;
17482;SDS011;8858;52.308;20.994;2023-07-31T06:08:04;2.70;;;2.50;;
17482;SDS011;8858;52.308;20.994;2023-07-31T06:10:32;3.80;;;2.53;;
17482;SDS011;8858;52.308;20.994;2023-07-31T06:13:02;3.72;;;2.67;;
17482;SDS011;8858;52.308;20.994;2023-07-31T06:15:32;2.78;;;2.58;;
17482;SDS011;8858;52.308;20.994;2023-07-31T06:18:04;3.13;;;2.63;;
17482;SDS011;8858;52.308;20.994;2023-07-31T06:20:34;3.75;;;2.70;;
17482;SDS011;8858;52.308;20.994;2023-07-31T06:23:02;4.90;;;2.70;;
17482;SDS011;8858;52.308;20.994;2023-07-31T06:25:30;2.70;;;2.50;;
17482;SDS011;8858;52.308;20.994;2023-07-31T06:27:58;2.90;;;2.63;;
17482;SDS011;8858;52.308;20.994;2023-07-31T06:30:27;4.60;;;2.85;;
17482;SDS011;8858;52.308;20.994;2023-07-31T06:32:57;2.60;;;2.38;;
17482;SDS011;8858;52.308;20.994;2023-07-31T06:35:25;3.10;;;2.50;;
17482;SDS011;8858;52.308;20.994;2023-07-31T06:37:58;5.00;;;3.22;;
17482;SDS011;8858;52.308;20.994;2023-07-31T06:40:26;3.08;;;2.70;;
17482;SDS011;8858;52.308;20.994;2023-07-31T06:42:55;3.17;;;2.60;;
17482;SDS011;8858;52.308;20.994;2023-07-31T06:45:23;3.58;;;2.38;;
17482;SDS011;8858;52.308;20.994;2023-07-31T06:47:52;3.80;;;2.17;;
17482;SDS011;8858;52.308;20.994;2023-07-31T06:50:21;7.18;;;5.25;;
17482;SDS011;8858;52.308;20.994;2023-07-31T06:52:50;6.88;;;2.97;;
17482;SDS011;8858;52.308;20.994;2023-07-31T06:55:19;5.38;;;2.80;;
17482;SDS011;8858;52.308;20.994;2023-07-31T06:57:49;3.90;;;2.47;;
17482;SDS011;8858;52.308;20.994;2023-07-31T07:00:19;3.08;;;2.50;;
17482;SDS011;8858;52.308;20.994;2023-07-31T07:02:53;3.63;;;2.97;;
17482;SDS011;8858;52.308;20.994;2023-07-31T07:05:23;4.32;;;2.47;;
17482;SDS011;8858;52.308;20.994;2023-07-31T07:07:52;2.67;;;2.40;;
17482;SDS011;8858;52.308;20.994;2023-07-31T07:10:20;3.05;;;2.42;;
17482;SDS011;8858;52.308;20.994;2023-07-31T07:12:51;5.50;;;2.60;;
17482;SDS011;8858;52.308;20.994;2023-07-31T07:15:22;2.83;;;2.63;;
17482;SDS011;8858;52.308;20.994;2023-07-31T07:17:50;3.58;;;2.40;;
17482;SDS011;8858;52.308;20.994;2023-07-31T07:20:19;2.50;;;2.30;;
17482;SDS011;8858;52.308;20.994;2023-07-31T07:22:49;5.03;;;2.53;;
17482;SDS011;8858;52.308;20.994;2023-07-31T07:25:18;4.50;;;2.60;;
17482;SDS011;8858;52.308;20.994;2023-07-31T07:27:46;2.80;;;2.40;;
17482;SDS011;8858;52.308;20.994;2023-07-31T07:30:14;4.25;;;2.22;;
17482;SDS011;8858;52.308;20.994;2023-07-31T07:32:46;3.45;;;2.42;;
17482;SDS011;8858;52.308;20.994;2023-07-31T07:35:15;6.35;;;2.85;;
17482;SDS011;8858;52.308;20.994;2023-07-31T07:37:49;6.15;;;2.83;;
17482;SDS011;8858;52.308;20.994;2023-07-31T07:40:18;3.10;;;2.40;;
17482;SDS011;8858;52.308;20.994;2023-07-31T07:42:47;2.67;;;2.42;;
17482;SDS011;8858;52.308;20.994;2023-07-31T07:45:15;3.35;;;2.38;;
17482;SDS011;8858;52.308;20.994;2023-07-31T07:47:43;3.78;;;3.28;;
17482;SDS011;8858;52.308;20.994;2023-07-31T07:50:12;3.10;;;2.50;;
17482;SDS011;8858;52.308;20.994;2023-07-31T07:52:45;3.55;;;2.70;;
17482;SDS011;8858;52.308;20.994;2023-07-31T07:55:15;5.07;;;3.17;;
17482;SDS011;8858;52.308;20.994;2023-07-31T07:57:43;3.30;;;2.28;;
17482;SDS011;8858;52.308;20.994;2023-07-31T08:00:11;5.10;;;2.70;;
17482;SDS011;8858;52.308;20.994;2023-07-31T08:02:41;2.58;;;2.25;;
17482;SDS011;8858;52.308;20.994;2023-07-31T08:05:10;5.10;;;2.50;;
17482;SDS011;8858;52.308;20.994;2023-07-31T08:07:38;2.92;;;2.45;;
17482;SDS011;8858;52.308;20.994;2023-07-31T08:10:08;4.40;;;2.30;;
17482;SDS011;8858;52.308;20.994;2023-07-31T08:12:37;3.28;;;2.85;;
17482;SDS011;8858;52.308;20.994;2023-07-31T08:15:06;3.83;;;2.30;;
17482;SDS011;8858;52.308;20.994;2023-07-31T08:17:36;5.05;;;2.88;;
17482;SDS011;8858;52.308;20.994;2023-07-31T08:20:05;3.50;;;2.53;;
17482;SDS011;8858;52.308;20.994;2023-07-31T08:22:34;2.83;;;2.08;;
17482;SDS011;8858;52.308;20.994;2023-07-31T08:25:03;10.90;;;2.47;;
17482;SDS011;8858;52.308;20.994;2023-07-31T08:27:33;4.15;;;2.10;;
17482;SDS011;8858;52.308;20.994;2023-07-31T08:30:05;2.97;;;2.20;;
17482;SDS011;8858;52.308;20.994;2023-07-31T08:32:34;3.33;;;2.47;;
17482;SDS011;8858;52.308;20.994;2023-07-31T08:35:04;4.38;;;2.13;;
17482;SDS011;8858;52.308;20.994;2023-07-31T08:37:33;4.72;;;2.50;;
17482;SDS011;8858;52.308;20.994;2023-07-31T08:40:01;3.33;;;2.30;;
17482;SDS011;8858;52.308;20.994;2023-07-31T08:42:32;3.35;;;2.20;;
17482;SDS011;8858;52.308;20.994;2023-07-31T08:45:01;3.55;;;2.13;;
17482;SDS011;8858;52.308;20.994;2023-07-31T08:47:33;4.20;;;2.15;;
17482;SDS011;8858;52.308;20.994;2023-07-31T08:50:03;2.70;;;2.05;;
17482;SDS011;8858;52.308;20.994;2023-07-31T08:55:26;3.45;;;2.00;;
17482;SDS011;8858;52.308;20.994;2023-07-31T08:58:01;2.70;;;1.92;;
17482;SDS011;8858;52.308;20.994;2023-07-31T09:00:32;2.92;;;2.13;;
17482;SDS011;8858;52.308;20.994;2023-07-31T09:03:07;2.17;;;1.65;;
17482;SDS011;8858;52.308;20.994;2023-07-31T09:05:37;2.65;;;2.13;;
17482;SDS011;8858;52.308;20.994;2023-07-31T09:08:08;4.22;;;2.42;;
17482;SDS011;8858;52.308;20.994;2023-07-31T09:10:40;3.67;;;2.50;;
17482;SDS011;8858;52.308;20.994;2023-07-31T09:13:09;4.22;;;2.30;;
17482;SDS011;8858;52.308;20.994;2023-07-31T09:15:38;4.45;;;2.30;;
17482;SDS011;8858;52.308;20.994;2023-07-31T09:18:09;3.60;;;1.80;;
17482;SDS011;8858;52.308;20.994;2023-07-31T09:20:40;3.97;;;2.15;;
17482;SDS011;8858;52.308;20.994;2023-07-31T09:23:10;3.00;;;1.90;;
17482;SDS011;8858;52.308;20.994;2023-07-31T09:25:41;2.67;;;2.20;;
17482;SDS011;8858;52.308;20.994;2023-07-31T09:28:11;5.15;;;2.10;;
17482;SDS011;8858;52.308;20.994;2023-07-31T09:30:46;2.83;;;1.85;;
17482;SDS011;8858;52.308;20.994;2023-07-31T09:33:18;1.98;;;1.80;;
17482;SDS011;8858;52.308;20.994;2023-07-31T09:35:47;3.05;;;2.00;;
17482;SDS011;8858;52.308;20.994;2023-07-31T09:38:15;3.50;;;2.00;;
17482;SDS011;8858;52.308;20.994;2023-07-31T09:40:44;5.05;;;1.83;;
17482;SDS011;8858;52.308;20.994;2023-07-31T09:43:17;3.15;;;1.80;;
17482;SDS011;8858;52.308;20.994;2023-07-31T09:45:46;2.42;;;1.60;;
17482;SDS011;8858;52.308;20.994;2023-07-31T09:48:16;2.40;;;1.60;;
17482;SDS011;8858;52.308;20.994;2023-07-31T09:50:49;2.50;;;1.40;;
17482;SDS011;8858;52.308;20.994;2023-07-31T09:53:17;2.03;;;1.58;;
17482;SDS011;8858;52.308;20.994;2023-07-31T09:55:46;3.95;;;1.60;;
17482;SDS011;8858;52.308;20.994;2023-07-31T09:58:14;1.98;;;1.45;;
17482;SDS011;8858;52.308;20.994;2023-07-31T10:00:42;1.67;;;1.52;;
17482;SDS011;8858;52.308;20.994;2023-07-31T10:03:12;3.65;;;1.70;;
17482;SDS011;8858;52.308;20.994;2023-07-31T10:05:45;2.10;;;1.60;;
17482;SDS011;8858;52.308;20.994;2023-07-31T10:08:20;1.60;;;1.50;;
17482;SDS011;8858;52.308;20.994;2023-07-31T10:10:51;1.48;;;1.35;;
17482;SDS011;8858;52.308;20.994;2023-07-31T10:13:19;3.53;;;1.58;;
17482;SDS011;8858;52.308;20.994;2023-07-31T10:15:49;1.40;;;1.30;;
17482;SDS011;8858;52.308;20.994;2023-07-31T10:18:18;3.47;;;1.60;;
17482;SDS011;8858;52.308;20.994;2023-07-31T10:20:54;3.03;;;1.30;;
17482;SDS011;8858;52.308;20.994;2023-07-31T10:23:23;3.65;;;1.52;;
17482;SDS011;8858;52.308;20.994;2023-07-31T10:25:56;3.00;;;1.40;;
17482;SDS011;8858;52.308;20.994;2023-07-31T10:28:27;3.72;;;1.48;;
17482;SDS011;8858;52.308;20.994;2023-07-31T10:30:56;1.83;;;1.35;;
17482;SDS011;8858;52.308;20.994;2023-07-31T10:33:25;3.13;;;1.67;;
17482;SDS011;8858;52.308;20.994;2023-07-31T10:38:43;2.05;;;1.60;;
17482;SDS011;8858;52.308;20.994;2023-07-31T10:41:11;3.05;;;1.70;;
17482;SDS011;8858;52.308;20.994;2023-07-31T10:43:39;3.20;;;1.50;;
17482;SDS011;8858;52.308;20.994;2023-07-31T10:46:08;2.53;;;1.50;;
17482;SDS011;8858;52.308;20.994;2023-07-31T10:48:40;3.67;;;1.63;;
17482;SDS011;8858;52.308;20.994;2023-07-31T10:51:09;1.30;;;1.20;;
17482;SDS011;8858;52.308;20.994;2023-07-31T10:53:40;2.85;;;1.30;;
17482;SDS011;8858;52.308;20.994;2023-07-31T10:56:09;2.80;;;1.20;;
17482;SDS011;8858;52.308;20.994;2023-07-31T10:58:41;2.25;;;1.30;;
17482;SDS011;8858;52.308;20.994;2023-07-31T11:01:14;1.83;;;1.58;;
17482;SDS011;8858;52.308;20.994;2023-07-31T11:03:43;1.73;;;1.20;;
17482;SDS011;8858;52.308;20.994;2023-07-31T11:06:16;1.63;;;1.25;;
17482;SDS011;8858;52.308;20.994;2023-07-31T11:08:47;1.45;;;1.15;;
17482;SDS011;8858;52.308;20.994;2023-07-31T11:11:17;2.92;;;1.50;;
17482;SDS011;8858;52.308;20.994;2023-07-31T11:13:47;1.98;;;1.35;;
17482;SDS011;8858;52.308;20.994;2023-07-31T11:16:19;2.72;;;1.50;;
17482;SDS011;8858;52.308;20.994;2023-07-31T11:18:51;5.65;;;1.58;;
17482;SDS011;8858;52.308;20.994;2023-07-31T11:21:27;2.08;;;1.42;;
17482;SDS011;8858;52.308;20.994;2023-07-31T11:24:00;3.33;;;1.45;;
17482;SDS011;8858;52.308;20.994;2023-07-31T11:26:28;2.88;;;1.30;;
17482;SDS011;8858;52.308;20.994;2023-07-31T11:28:59;2.35;;;1.40;;
17482;SDS011;8858;52.308;20.994;2023-07-31T11:31:28;2.45;;;1.40;;
17482;SDS011;8858;52.308;20.994;2023-07-31T11:34:04;1.63;;;1.27;;
17482;SDS011;8858;52.308;20.994;2023-07-31T11:36:32;2.35;;;1.40;;
17482;SDS011;8858;52.308;20.994;2023-07-31T11:39:05;2.00;;;1.10;;
17482;SDS011;8858;52.308;20.994;2023-07-31T11:41:35;2.10;;;1.35;;
17482;SDS011;8858;52.308;20.994;2023-07-31T11:44:03;2.05;;;1.35;;
17482;SDS011;8858;52.308;20.994;2023-07-31T11:46:50;2.15;;;1.15;;
17482;SDS011;8858;52.308;20.994;2023-07-31T11:49:19;3.25;;;1.20;;
17482;SDS011;8858;52.308;20.994;2023-07-31T11:51:49;1.85;;;1.20;;
17482;SDS011;8858;52.308;20.994;2023-07-31T11:54:19;1.52;;;1.30;;
17482;SDS011;8858;52.308;20.994;2023-07-31T11:56:47;3.17;;;1.10;;
17482;SDS011;8858;52.308;20.994;2023-07-31T11:59:17;2.08;;;1.30;;
17482;SDS011;8858;52.308;20.994;2023-07-31T12:01:45;3.45;;;1.60;;
17482;SDS011;8858;52.308;20.994;2023-07-31T12:04:18;1.50;;;1.40;;
17482;SDS011;8858;52.308;20.994;2023-07-31T12:06:48;1.92;;;1.30;;
17482;SDS011;8858;52.308;20.994;2023-07-31T12:09:17;2.47;;;1.20;;
17482;SDS011;8858;52.308;20.994;2023-07-31T12:11:47;1.85;;;1.23;;
17482;SDS011;8858;52.308;20.994;2023-07-31T12:14:19;5.82;;;1.58;;
17482;SDS011;8858;52.308;20.994;2023-07-31T12:16:52;4.13;;;1.33;;
17482;SDS011;8858;52.308;20.994;2023-07-31T12:19:22;2.47;;;1.42;;
17482;SDS011;8858;52.308;20.994;2023-07-31T12:21:55;2.75;;;1.67;;
17482;SDS011;8858;52.308;20.994;2023-07-31T12:24:25;3.60;;;1.40;;
17482;SDS011;8858;52.308;20.994;2023-07-31T12:26:56;3.30;;;1.40;;
17482;SDS011;8858;52.308;20.994;2023-07-31T12:29:33;2.75;;;1.33;;
17482;SDS011;8858;52.308;20.994;2023-07-31T12:32:19;2.30;;;1.35;;
17482;SDS011;8858;52.308;20.994;2023-07-31T12:34:48;1.52;;;1.10;;
17482;SDS011;8858;52.308;20.994;2023-07-31T12:37:20;1.42;;;1.23;;
17482;SDS011;8858;52.308;20.994;2023-07-31T12:39:50;1.52;;;1.33;;
17482;SDS011;8858;52.308;20.994;2023-07-31T12:42:25;2.55;;;1.33;;
17482;SDS011;8858;52.308;20.994;2023-07-31T12:44:54;1.90;;;1.73;;
17482;SDS011;8858;52.308;20.994;2023-07-31T12:47:22;3.05;;;1.70;;
17482;SDS011;8858;52.308;20.994;2023-07-31T12:49:51;2.38;;;1.38;;
17482;SDS011;8858;52.308;20.994;2023-07-31T12:52:19;3.10;;;1.55;;
17482;SDS011;8858;52.308;20.994;2023-07-31T12:54:54;2.40;;;1.67;;
17482;SDS011;8858;52.308;20.994;2023-07-31T12:57:22;2.83;;;1.70;;
17482;SDS011;8858;52.308;20.994;2023-07-31T12:59:51;2.70;;;1.60;;
17482;SDS011;8858;52.308;20.994;2023-07-31T13:02:20;1.90;;;1.30;;
17482;SDS011;8858;52.308;20.994;2023-07-31T13:04:51;2.50;;;1.77;;
17482;SDS011;8858;52.308;20.994;2023-07-31T13:07:21;3.00;;;1.40;;
17482;SDS011;8858;52.308;20.994;2023-07-31T13:09:49;2.35;;;1.60;;
17482;SDS011;8858;52.308;20.994;2023-07-31T13:12:19;2.08;;;1.55;;
17482;SDS011;8858;52.308;20.994;2023-07-31T13:14:47;2.30;;;1.45;;
17482;SDS011;8858;52.308;20.994;2023-07-31T13:17:19;4.38;;;1.60;;
17482;SDS011;8858;52.308;20.994;2023-07-31T13:19:47;7.43;;;1.85;;
17482;SDS011;8858;52.308;20.994;2023-07-31T13:22:16;1.58;;;1.40;;
17482;SDS011;8858;52.308;20.994;2023-07-31T13:24:44;3.65;;;1.80;;
17482;SDS011;8858;52.308;20.994;2023-07-31T13:27:12;2.42;;;1.48;;
17482;SDS011;8858;52.308;20.994;2023-07-31T13:29:44;4.03;;;1.55;;
17482;SDS011;8858;52.308;20.994;2023-07-31T13:32:17;1.70;;;1.20;;
17482;SDS011;8858;52.308;20.994;2023-07-31T13:34:47;1.65;;;1.48;;
17482;SDS011;8858;52.308;20.994;2023-07-31T13:37:16;4.07;;;1.60;;
17482;SDS011;8858;52.308;20.994;2023-07-31T13:39:44;3.25;;;1.80;;
17482;SDS011;8858;52.308;20.994;2023-07-31T13:42:13;3.47;;;1.58;;
17482;SDS011;8858;52.308;20.994;2023-07-31T13:44:41;3.42;;;1.42;;
17482;SDS011;8858;52.308;20.994;2023-07-31T13:47:11;3.67;;;1.38;;
17482;SDS011;8858;52.308;20.994;2023-07-31T13:49:40;1.50;;;1.25;;
17482;SDS011;8858;52.308;20.994;2023-07-31T13:52:09;3.72;;;1.30;;
17482;SDS011;8858;52.308;20.994;2023-07-31T13:54:38;2.83;;;1.63;;
17482;SDS011;8858;52.308;20.994;2023-07-31T13:57:08;1.65;;;1.13;;
17482;SDS011;8858;52.308;20.994;2023-07-31T13:59:37;1.60;;;1.38;;
17482;SDS011;8858;52.308;20.994;2023-07-31T14:02:07;2.63;;;1.50;;
17482;SDS011;8858;52.308;20.994;2023-07-31T14:04:35;2.53;;;1.52;;
17482;SDS011;8858;52.308;20.994;2023-07-31T14:07:04;3.88;;;1.63;;
17482;SDS011;8858;52.308;20.994;2023-07-31T14:09:36;2.22;;;1.50;;
17482;SDS011;8858;52.308;20.994;2023-07-31T14:12:05;2.08;;;1.40;;
17482;SDS011;8858;52.308;20.994;2023-07-31T14:14:33;4.43;;;1.80;;
17482;SDS011;8858;52.308;20.994;2023-07-31T14:17:02;2.15;;;1.30;;
17482;SDS011;8858;52.308;20.994;2023-07-31T14:19:32;2.15;;;1.23;;
17482;SDS011;8858;52.308;20.994;2023-07-31T14:22:04;3.92;;;1.50;;
17482;SDS011;8858;52.308;20.994;2023-07-31T14:24:37;3.50;;;1.40;;
17482;SDS011;8858;52.308;20.994;2023-07-31T14:27:05;2.88;;;1.50;;
17482;SDS011;8858;52.308;20.994;2023-07-31T14:29:34;4.70;;;1.73;;
17482;SDS011;8858;52.308;20.994;2023-07-31T14:32:02;4.40;;;1.65;;
17482;SDS011;8858;52.308;20.994;2023-07-31T14:34:35;3.63;;;1.70;;
17482;SDS011;8858;52.308;20.994;2023-07-31T14:37:03;4.78;;;1.52;;
17482;SDS011;8858;52.308;20.994;2023-07-31T14:39:32;2.67;;;1.38;;
17482;SDS011;8858;52.308;20.994;2023-07-31T14:42:00;3.30;;;1.95;;
17482;SDS011;8858;52.308;20.994;2023-07-31T14:44:29;2.38;;;1.55;;
17482;SDS011;8858;52.308;20.994;2023-07-31T14:47:01;2.95;;;1.42;;
17482;SDS011;8858;52.308;20.994;2023-07-31T14:49:29;2.30;;;1.42;;
17482;SDS011;8858;52.308;20.994;2023-07-31T14:51:59;1.98;;;1.48;;
17482;SDS011;8858;52.308;20.994;2023-07-31T14:54:27;2.35;;;1.23;;
17482;SDS011;8858;52.308;20.994;2023-07-31T14:56:55;4.30;;;1.65;;
17482;SDS011;8858;52.308;20.994;2023-07-31T14:59:24;5.35;;;1.90;;
17482;SDS011;8858;52.308;20.994;2023-07-31T15:01:52;3.17;;;1.60;;
17482;SDS011;8858;52.308;20.994;2023-07-31T15:04:20;3.63;;;1.40;;
17482;SDS011;8858;52.308;20.994;2023-07-31T15:06:53;4.22;;;1.90;;
17482;SDS011;8858;52.308;20.994;2023-07-31T15:09:23;4.75;;;1.50;;
17482;SDS011;8858;52.308;20.994;2023-07-31T15:11:51;5.32;;;1.80;;